Terminal Aerodrome Forecast
Issued by NWS

Home | Current Version | Previous Version | Graphics & Text | Print | Product List | Glossary On
Versions: 1 2 3 4 5 6 7 8 9 10 11 12 13 14 15 16 17 18 19 20
000
FTUS43 KGRB 181500 AAA
TAFAUW
TAF AMD
KAUW 181517Z 1815/1912 34009G15KT P6SM BKN018
      TEMPO 1815/1818 SCT018 BKN035
     FM181800 32007KT P6SM SCT035
     FM190100 VRB03KT P6SM SKC=

USA.gov is the U.S. government's official web portal to all federal, state and local government web resources and services.